Time;durP1;ratioP1;P1;durP2;ratioP2;P2;SDS_P1;SDS_P2;PMS_P1;PMS_P2;Temp;Humidity;BMP_temperature;BMP_pressure;BME280_temperature;BME280_humidity;BME280_pressure;Samples;Min_cycle;Max_cycle;Signal;HPM_P1;HPM_P2
2022/06/09 00:01:59;;;;;;;0.00;0.00;;;15.30;99.90;;;;;;4910712;29;20452;-69
2022/06/09 00:04:38;;;;;;;11.15;1.17;;;15.20;99.90;;;;;;4911237;29;20072;-69
2022/06/09 00:07:15;;;;;;;0.20;0.20;;;15.30;99.90;;;;;;4911823;29;20044;-69
2022/06/09 00:09:55;;;;;;;0.60;0.50;;;15.30;99.90;;;;;;4909662;29;20050;-70
2022/06/09 00:12:22;;;;;;;0.22;0.22;;;15.20;99.90;;;;;;4898586;29;20457;-69
2022/06/09 00:14:48;;;;;;;0.32;0.32;;;15.10;99.90;;;;;;4910119;29;20060;-69
2022/06/09 00:17:13;;;;;;;0.28;0.28;;;15.10;99.90;;;;;;4913537;29;20043;-69
2022/06/09 00:19:39;;;;;;;0.20;0.20;;;15.10;99.90;;;;;;4905425;29;20427;-69
2022/06/09 00:22:05;;;;;;;0.47;0.47;;;15.10;99.90;;;;;;4899273;29;20500;-69
2022/06/09 00:24:31;;;;;;;0.30;0.30;;;15.10;99.90;;;;;;4894240;29;20103;-69
2022/06/09 00:26:56;;;;;;;0.35;0.35;;;15.10;99.90;;;;;;4906879;29;20055;-69
2022/06/09 00:29:22;;;;;;;0.00;0.00;;;15.00;99.90;;;;;;4893080;29;20136;-69
2022/06/09 00:31:47;;;;;;;1.02;0.73;;;15.00;99.90;;;;;;4904511;29;20052;-69
2022/06/09 00:34:13;;;;;;;0.45;0.45;;;14.90;99.90;;;;;;4912988;29;20048;-70
2022/06/09 00:36:39;;;;;;;2.72;0.63;;;14.90;99.90;;;;;;4913513;29;20051;-70
2022/06/09 00:39:04;;;;;;;1.75;1.52;;;14.90;99.90;;;;;;4897914;29;20098;-69
2022/06/09 00:41:38;;;;;;;0.35;0.35;;;14.90;99.90;;;;;;4901325;29;20084;-69
2022/06/09 00:44:14;;;;;;;;;;;14.90;99.90;;;;;;4908470;29;20152;-69
2022/06/09 00:46:40;;;;;;;0.70;0.70;;;14.90;99.90;;;;;;4899121;29;20760;-70
2022/06/09 00:49:21;;;;;;;0.52;0.52;;;14.80;99.90;;;;;;4912436;29;20520;-69
2022/06/09 00:51:53;;;;;;;0.10;0.10;;;14.80;99.90;;;;;;4912191;29;20083;-69
2022/06/09 00:54:37;;;;;;;0.50;0.47;;;14.70;99.90;;;;;;4893343;29;20482;-69
2022/06/09 00:57:14;;;;;;;0.13;0.13;;;14.70;99.90;;;;;;4900361;29;20188;-69
2022/06/09 00:59:44;;;;;;;1.20;0.70;;;14.70;99.90;;;;;;4893887;29;20059;-69
2022/06/09 01:02:12;;;;;;;1.45;1.25;;;14.70;99.90;;;;;;4907540;29;20072;-69
2022/06/09 01:04:39;;;;;;;0.10;0.10;;;14.60;99.90;;;;;;4911938;29;20094;-69
2022/06/09 01:07:18;;;;;;;0.30;0.30;;;14.60;99.90;;;;;;4896466;29;20049;-69
2022/06/09 01:09:44;;;;;;;1.20;0.70;;;14.60;99.90;;;;;;4908909;29;20768;-69
2022/06/09 01:12:21;;;;;;;0.43;0.43;;;14.50;99.90;;;;;;4910278;29;20144;-69
2022/06/09 01:14:47;;;;;;;7.63;0.75;;;14.50;99.90;;;;;;4911155;29;20055;-69
2022/06/09 01:17:29;;;;;;;0.40;0.40;;;14.50;99.90;;;;;;4897862;29;20457;-69
2022/06/09 01:20:04;;;;;;;0.00;0.00;;;14.50;99.90;;;;;;4905126;29;20052;-69
2022/06/09 01:23:11;;;;;;;0.43;0.32;;;14.40;99.90;;;;;;4901235;29;20048;-69
2022/06/09 01:26:27;;;;;;;0.77;0.77;;;14.40;99.90;;;;;;4892728;29;20552;-69
2022/06/09 01:29:13;;;;;;;0.20;0.20;;;14.30;99.90;;;;;;4897599;29;20048;-69
2022/06/09 01:32:05;;;;;;;1.48;0.40;;;14.20;99.90;;;;;;4904546;29;20757;-70
2022/06/09 01:34:50;;;;;;;0.40;0.40;;;14.20;99.90;;;;;;4893251;29;20048;-69
2022/06/09 01:37:30;;;;;;;1.77;1.30;;;14.20;99.90;;;;;;4898544;29;20053;-69
2022/06/09 01:39:58;;;;;;;0.05;0.05;;;14.20;99.90;;;;;;4905513;29;20075;-70
2022/06/09 01:42:26;;;;;;;0.25;0.25;;;14.30;99.90;;;;;;4901777;29;20083;-69
2022/06/09 01:44:56;;;;;;;0.10;0.10;;;14.30;99.90;;;;;;4894105;29;20056;-69
2022/06/09 01:47:28;;;;;;;1.98;1.75;;;14.30;99.90;;;;;;4898626;29;20467;-69
2022/06/09 01:49:57;;;;;;;0.43;0.43;;;14.20;99.90;;;;;;4893346;29;20061;-69
2022/06/09 01:52:26;;;;;;;1.90;0.73;;;14.20;99.90;;;;;;4898311;29;20060;-69
2022/06/09 01:54:53;;;;;;;4.13;0.20;;;14.10;99.90;;;;;;4898004;29;20099;-69
2022/06/09 01:57:28;;;;;;;0.05;0.05;;;14.10;99.90;;;;;;4909134;29;20564;-70
2022/06/09 02:00:00;;;;;;;0.10;0.10;;;14.10;99.90;;;;;;4912275;29;20059;-69
2022/06/09 02:02:30;;;;;;;0.10;0.10;;;14.00;99.90;;;;;;4893030;29;20075;-69
2022/06/09 02:05:10;;;;;;;0.30;0.30;;;14.00;99.90;;;;;;4899409;29;20080;-69
2022/06/09 02:07:37;;;;;;;0.10;0.10;;;14.00;99.90;;;;;;4893003;29;20540;-69
2022/06/09 02:10:19;;;;;;;12.05;1.05;;;14.00;99.90;;;;;;4893472;29;20772;-70
2022/06/09 02:12:48;;;;;;;0.10;0.10;;;13.90;99.90;;;;;;4907178;29;20041;-69
2022/06/09 02:15:21;;;;;;;0.00;0.00;;;13.90;99.90;;;;;;4906519;29;20044;-69
2022/06/09 02:17:49;;;;;;;0.43;0.43;;;13.80;99.90;;;;;;4910417;29;20556;-69
2022/06/09 02:20:17;;;;;;;0.20;0.20;;;13.80;99.90;;;;;;4901859;29;20059;-69
2022/06/09 02:22:43;;;;;;;0.15;0.15;;;13.70;99.90;;;;;;4894522;29;20044;-69
2022/06/09 02:25:09;;;;;;;0.10;0.10;;;13.70;99.90;;;;;;4895370;29;20593;-69
2022/06/09 02:27:35;;;;;;;0.10;0.10;;;13.70;99.90;;;;;;4912036;29;20060;-70
2022/06/09 02:30:00;;;;;;;0.35;0.35;;;13.70;99.90;;;;;;4899994;29;20048;-69
2022/06/09 02:32:26;;;;;;;0.70;0.68;;;13.70;99.90;;;;;;4905303;29;20060;-69
2022/06/09 02:34:52;;;;;;;0.00;0.00;;;13.70;99.90;;;;;;4911226;29;20067;-69
2022/06/09 02:37:17;;;;;;;0.00;0.00;;;13.70;99.90;;;;;;4908417;29;20166;-69
2022/06/09 02:39:43;;;;;;;0.10;0.10;;;13.70;99.90;;;;;;4898275;29;20143;-69
2022/06/09 02:42:08;;;;;;;0.10;0.10;;;13.70;99.90;;;;;;4893046;29;20040;-69
2022/06/09 02:44:34;;;;;;;0.20;0.20;;;13.80;99.90;;;;;;4890984;29;20164;-69
2022/06/09 02:47:00;;;;;;;0.30;0.30;;;13.70;99.90;;;;;;4900674;29;20052;-69
2022/06/09 02:49:26;;;;;;;0.10;0.10;;;13.70;99.90;;;;;;4912062;29;20048;-69
2022/06/09 02:51:54;;;;;;;0.70;0.35;;;13.80;99.90;;;;;;4900846;29;20095;-69
2022/06/09 02:54:21;;;;;;;0.45;0.45;;;13.80;99.90;;;;;;4893203;29;20087;-69
2022/06/09 02:56:47;;;;;;;0.30;0.30;;;13.80;99.90;;;;;;4905206;29;20040;-69
2022/06/09 02:59:13;;;;;;;0.10;0.10;;;13.80;99.90;;;;;;4898236;29;20048;-69
2022/06/09 03:01:39;;;;;;;0.30;0.30;;;13.80;99.90;;;;;;4895132;29;20177;-70
2022/06/09 03:04:06;;;;;;;1.02;0.93;;;13.90;99.90;;;;;;4893674;29;20067;-70
2022/06/09 03:06:32;;;;;;;0.10;0.10;;;13.90;99.90;;;;;;4890669;29;20127;-69
2022/06/09 03:08:58;;;;;;;3.03;1.00;;;14.00;99.90;;;;;;4891979;29;20045;-70
2022/06/09 03:11:24;;;;;;;0.32;0.32;;;14.00;99.90;;;;;;4898864;29;20055;-69
2022/06/09 03:13:50;;;;;;;0.10;0.10;;;14.00;99.90;;;;;;4913921;29;20046;-70
2022/06/09 03:16:16;;;;;;;0.30;0.30;;;14.10;99.90;;;;;;4908832;29;20056;-69
2022/06/09 03:18:42;;;;;;;0.08;0.08;;;14.10;99.90;;;;;;4897000;29;20056;-69
2022/06/09 03:21:09;;;;;;;0.57;0.50;;;14.10;99.90;;;;;;4895574;29;20048;-69
2022/06/09 03:23:35;;;;;;;0.20;0.20;;;14.20;99.90;;;;;;4897590;29;20523;-69
2022/06/09 03:26:00;;;;;;;0.20;0.20;;;14.20;99.90;;;;;;4903285;29;20036;-69
2022/06/09 03:28:26;;;;;;;0.00;0.00;;;14.20;99.90;;;;;;4914252;29;20047;-69
2022/06/09 03:30:52;;;;;;;2.55;0.88;;;14.20;99.90;;;;;;4901474;29;20127;-69
2022/06/09 03:33:18;;;;;;;0.17;0.17;;;14.30;99.90;;;;;;4905605;29;20485;-69
2022/06/09 03:35:43;;;;;;;1.13;1.02;;;14.30;99.90;;;;;;4906173;29;20082;-69
2022/06/09 03:38:09;;;;;;;0.57;0.57;;;14.30;99.90;;;;;;4912952;29;20056;-69
2022/06/09 03:40:35;;;;;;;0.10;0.10;;;14.30;99.90;;;;;;4913989;29;20492;-69
2022/06/09 03:43:04;;;;;;;0.40;0.40;;;14.30;99.90;;;;;;4903805;29;20047;-70
2022/06/09 03:45:31;;;;;;;0.20;0.20;;;14.30;99.90;;;;;;4896237;29;20092;-69
2022/06/09 03:47:57;;;;;;;0.10;0.10;;;14.40;99.90;;;;;;4894031;29;20135;-69
2022/06/09 03:50:26;;;;;;;0.40;0.40;;;14.40;99.90;;;;;;4899044;29;20105;-70
2022/06/09 03:52:52;;;;;;;0.70;0.70;;;14.40;99.90;;;;;;4911688;29;20133;-69
2022/06/09 03:55:18;;;;;;;0.77;0.63;;;14.40;99.90;;;;;;4912978;29;20051;-69
2022/06/09 03:57:44;;;;;;;0.10;0.10;;;14.40;99.90;;;;;;4906385;29;20060;-69
2022/06/09 04:00:15;;;;;;;3.47;0.73;;;14.40;99.90;;;;;;4894672;29;20433;-69
2022/06/09 04:02:41;;;;;;;0.98;0.90;;;14.40;99.90;;;;;;4904940;29;20122;-69
2022/06/09 04:05:07;;;;;;;0.20;0.20;;;14.50;99.90;;;;;;4912405;29;20444;-69
2022/06/09 04:07:32;;;;;;;0.10;0.10;;;14.50;99.90;;;;;;4913256;29;20626;-69
2022/06/09 04:09:58;;;;;;;0.63;0.63;;;14.50;99.90;;;;;;4910795;29;20044;-69
2022/06/09 04:12:24;;;;;;;0.35;0.35;;;14.50;99.90;;;;;;4901234;29;20407;-69
2022/06/09 04:14:51;;;;;;;0.38;0.38;;;14.50;99.90;;;;;;4905876;29;20040;-69
2022/06/09 04:17:16;;;;;;;0.00;0.00;;;14.50;99.90;;;;;;4893267;29;20045;-69
2022/06/09 04:19:42;;;;;;;0.10;0.10;;;14.50;99.90;;;;;;4901933;29;20091;-69
2022/06/09 04:22:07;;;;;;;0.10;0.10;;;14.50;99.90;;;;;;4911218;29;20048;-69
2022/06/09 04:24:33;;;;;;;0.00;0.00;;;14.50;99.90;;;;;;4910697;29;20403;-69
2022/06/09 04:26:59;;;;;;;0.52;0.38;;;14.50;99.90;;;;;;4913233;29;20404;-69
2022/06/09 04:29:25;;;;;;;0.10;0.10;;;14.60;99.90;;;;;;4913615;29;20563;-69
2022/06/09 04:31:50;;;;;;;0.20;0.20;;;14.50;99.90;;;;;;4912654;29;20151;-69
2022/06/09 04:34:16;;;;;;;5.40;0.35;;;14.50;99.90;;;;;;4902253;29;20064;-69
2022/06/09 04:36:42;;;;;;;0.50;0.50;;;14.50;99.90;;;;;;4896140;29;20044;-69
2022/06/09 04:39:08;;;;;;;0.63;0.63;;;14.60;99.90;;;;;;4902312;29;20405;-69
2022/06/09 04:41:35;;;;;;;0.10;0.10;;;14.60;99.90;;;;;;4901880;29;20086;-69
2022/06/09 04:44:01;;;;;;;0.05;0.05;;;14.60;99.90;;;;;;4909633;29;20135;-69
2022/06/09 04:46:27;;;;;;;0.10;0.10;;;14.60;99.90;;;;;;4911020;29;20155;-69
2022/06/09 04:48:53;;;;;;;0.15;0.15;;;14.60;99.90;;;;;;4909016;29;20123;-69
2022/06/09 04:51:21;;;;;;;0.63;0.63;;;14.60;99.90;;;;;;4893485;29;20552;-69
2022/06/09 04:53:48;;;;;;;0.28;0.28;;;14.60;99.90;;;;;;4909124;29;20139;-69
2022/06/09 04:56:14;;;;;;;0.20;0.20;;;14.70;99.90;;;;;;4909350;29;20127;-69
2022/06/09 04:58:40;;;;;;;0.10;0.10;;;14.60;99.90;;;;;;4910294;29;20044;-69
2022/06/09 05:01:12;;;;;;;0.10;0.10;;;14.70;99.90;;;;;;4903793;29;20481;-69
2022/06/09 05:03:38;;;;;;;3.30;1.65;;;14.70;99.90;;;;;;4894851;29;20501;-69
2022/06/09 05:06:04;;;;;;;0.10;0.10;;;14.70;99.90;;;;;;4892779;29;20116;-69
2022/06/09 05:08:29;;;;;;;0.13;0.13;;;14.70;99.90;;;;;;4904855;29;20079;-69
2022/06/09 05:10:55;;;;;;;0.22;0.22;;;14.80;99.90;;;;;;4911077;29;20056;-69
2022/06/09 05:13:20;;;;;;;0.10;0.10;;;14.70;99.90;;;;;;4903755;29;20064;-69
2022/06/09 05:15:55;;;;;;;0.40;0.40;;;14.80;99.90;;;;;;4900901;29;20108;-70
2022/06/09 05:18:23;;;;;;;0.10;0.10;;;14.80;99.90;;;;;;4912803;29;20051;-69
2022/06/09 05:20:50;;;;;;;0.10;0.10;;;14.80;99.90;;;;;;4895214;29;20092;-69
2022/06/09 05:23:18;;;;;;;0.93;0.85;;;14.90;99.90;;;;;;4904129;29;20131;-69
2022/06/09 05:25:48;;;;;;;0.63;0.63;;;14.90;99.90;;;;;;4912052;29;20094;-69
2022/06/09 05:28:15;;;;;;;0.75;0.75;;;14.90;99.90;;;;;;4907719;29;20047;-69
2022/06/09 05:30:40;;;;;;;0.13;0.13;;;14.90;99.90;;;;;;4910071;29;20052;-69
2022/06/09 05:33:06;;;;;;;0.20;0.20;;;14.90;99.90;;;;;;4900433;29;20056;-69
2022/06/09 05:35:32;;;;;;;1.95;1.65;;;14.90;99.90;;;;;;4899659;29;20389;-69
2022/06/09 05:46:14;;;;;;;0.00;0.00;;;15.00;99.90;;;;;;4899683;29;20048;-69
2022/06/09 05:48:39;;;;;;;0.30;0.30;;;15.00;99.90;;;;;;4911741;29;20504;-69
2022/06/09 05:51:05;;;;;;;2.47;0.95;;;15.00;99.90;;;;;;4901248;29;20052;-69
2022/06/09 05:53:31;;;;;;;0.10;0.10;;;15.10;99.90;;;;;;4894273;29;20492;-69
2022/06/09 05:55:56;;;;;;;0.00;0.00;;;15.10;99.90;;;;;;4907043;29;20460;-69
2022/06/09 05:58:22;;;;;;;0.77;0.45;;;15.10;99.90;;;;;;4911861;29;20043;-69
2022/06/09 06:00:48;;;;;;;0.50;0.50;;;15.10;99.90;;;;;;4907491;29;20040;-69
2022/06/09 06:03:15;;;;;;;0.40;0.40;;;15.10;99.90;;;;;;4893791;29;20045;-69
2022/06/09 06:08:25;;;;;;;0.10;0.10;;;15.10;99.90;;;;;;4903715;29;20074;-69
2022/06/09 06:10:52;;;;;;;0.10;0.10;;;15.20;99.90;;;;;;4893730;29;20084;-69
2022/06/09 06:13:18;;;;;;;0.28;0.28;;;15.20;99.90;;;;;;4903154;29;20044;-69
2022/06/09 06:15:43;;;;;;;1.27;1.00;;;15.30;99.90;;;;;;4906239;29;20056;-69
2022/06/09 06:18:09;;;;;;;0.20;0.20;;;15.30;99.90;;;;;;4892970;29;20057;-69
2022/06/09 06:20:35;;;;;;;0.20;0.20;;;15.40;99.90;;;;;;4898695;29;20049;-69
2022/06/09 06:23:01;;;;;;;0.35;0.35;;;15.40;99.90;;;;;;4900317;29;20691;-69
2022/06/09 06:25:27;;;;;;;0.30;0.30;;;15.40;99.90;;;;;;4893710;29;20080;-69
2022/06/09 06:27:53;;;;;;;0.65;0.65;;;15.50;99.90;;;;;;4904864;29;20098;-69
2022/06/09 06:30:20;;;;;;;0.00;0.00;;;15.50;99.90;;;;;;4897016;29;20044;-69
2022/06/09 06:32:45;;;;;;;0.30;0.20;;;15.50;99.90;;;;;;4905585;29;20416;-69
2022/06/09 06:35:12;;;;;;;0.10;0.10;;;15.50;99.90;;;;;;4901473;29;20053;-69
2022/06/09 06:37:38;;;;;;;0.10;0.10;;;15.60;99.90;;;;;;4892741;29;20056;-69
2022/06/09 06:40:04;;;;;;;0.03;0.03;;;15.60;99.90;;;;;;4893501;29;20044;-69
2022/06/09 06:42:30;;;;;;;0.10;0.10;;;15.60;99.90;;;;;;4903246;29;20056;-69
2022/06/09 06:44:55;;;;;;;0.10;0.10;;;15.70;99.90;;;;;;4894406;29;20053;-69
2022/06/09 06:47:21;;;;;;;0.55;0.55;;;15.70;99.90;;;;;;4892687;29;20099;-69
2022/06/09 06:49:46;;;;;;;0.00;0.00;;;15.70;99.90;;;;;;4908136;29;20048;-69
2022/06/09 06:52:12;;;;;;;0.10;0.10;;;15.80;99.90;;;;;;4912208;29;20048;-68
2022/06/09 06:54:38;;;;;;;0.10;0.10;;;15.80;99.90;;;;;;4901037;29;20052;-69
2022/06/09 06:57:05;;;;;;;0.03;0.03;;;15.80;99.90;;;;;;4910730;29;20540;-69
2022/06/09 06:59:32;;;;;;;0.20;0.20;;;15.90;99.90;;;;;;4911213;29;20736;-69
2022/06/09 07:01:58;;;;;;;0.00;0.00;;;15.90;99.90;;;;;;4899987;29;20484;-69
2022/06/09 07:04:24;;;;;;;0.00;0.00;;;16.00;99.90;;;;;;4910598;29;20059;-69
2022/06/09 07:06:50;;;;;;;0.00;0.00;;;16.00;99.90;;;;;;4912009;29;20056;-69
2022/06/09 07:09:15;;;;;;;0.00;0.00;;;16.00;99.90;;;;;;4904690;29;20052;-69
2022/06/09 07:11:43;;;;;;;0.00;0.00;;;16.10;99.90;;;;;;4907191;29;20527;-68
2022/06/09 07:14:09;;;;;;;0.10;0.10;;;16.10;99.90;;;;;;4913895;29;20100;-68
2022/06/09 07:16:35;;;;;;;1.38;0.95;;;16.10;99.90;;;;;;4903913;29;20045;-68
2022/06/09 07:19:00;;;;;;;0.00;0.00;;;16.10;99.90;;;;;;4895691;29;20409;-68
2022/06/09 07:21:26;;;;;;;0.00;0.00;;;16.10;99.90;;;;;;4894937;29;20049;-70
2022/06/09 07:23:51;;;;;;;0.05;0.05;;;16.20;99.90;;;;;;4914076;29;20048;-69
2022/06/09 07:26:17;;;;;;;0.20;0.20;;;16.20;99.90;;;;;;4907105;29;20049;-69
2022/06/09 07:28:43;;;;;;;0.10;0.10;;;16.20;99.90;;;;;;4911316;29;20087;-68
2022/06/09 07:31:09;;;;;;;0.10;0.10;;;16.20;99.90;;;;;;4912691;29;20048;-68
2022/06/09 07:33:37;;;;;;;0.20;0.20;;;16.30;99.90;;;;;;4901679;29;20115;-68
2022/06/09 07:36:06;;;;;;;0.00;0.00;;;16.30;99.90;;;;;;4895094;29;20048;-68
2022/06/09 07:38:33;;;;;;;0.47;0.47;;;16.40;99.90;;;;;;4907927;29;20052;-68
2022/06/09 07:40:59;;;;;;;0.57;0.57;;;16.40;99.90;;;;;;4908747;29;20242;-68
2022/06/09 07:43:24;;;;;;;0.00;0.00;;;16.40;99.90;;;;;;4905630;29;20503;-69
2022/06/09 07:45:50;;;;;;;0.08;0.08;;;16.50;99.90;;;;;;4916820;29;20048;-68
2022/06/09 07:48:19;;;;;;;3.10;0.28;;;16.50;99.90;;;;;;4913392;29;20043;-68
2022/06/09 07:50:46;;;;;;;0.20;0.20;;;16.60;99.90;;;;;;4913210;29;20040;-68
2022/06/09 07:53:13;;;;;;;0.03;0.03;;;16.60;99.90;;;;;;4906239;29;20050;-68
2022/06/09 07:55:39;;;;;;;0.00;0.00;;;16.70;99.90;;;;;;4905389;29;20786;-68
2022/06/09 07:58:05;;;;;;;0.10;0.10;;;16.60;99.90;;;;;;4907980;29;20050;-68
2022/06/09 08:00:31;;;;;;;0.20;0.20;;;16.70;99.90;;;;;;4913335;29;20042;-68
2022/06/09 08:02:57;;;;;;;0.20;0.20;;;16.70;99.90;;;;;;4905409;29;20127;-68
2022/06/09 08:05:26;;;;;;;0.60;0.60;;;16.80;99.90;;;;;;4898722;29;20433;-68
2022/06/09 08:07:53;;;;;;;0.08;0.08;;;16.90;99.90;;;;;;4913414;29;20112;-69
2022/06/09 08:10:22;;;;;;;0.88;0.75;;;16.90;99.90;;;;;;4906971;29;20051;-68
2022/06/09 08:12:50;;;;;;;0.00;0.00;;;16.80;99.90;;;;;;4910071;29;20044;-68
2022/06/09 08:15:17;;;;;;;0.00;0.00;;;16.70;99.90;;;;;;4906155;29;20087;-68
2022/06/09 08:17:43;;;;;;;0.00;0.00;;;16.70;99.90;;;;;;4903213;29;20564;-68
2022/06/09 08:20:13;;;;;;;0.10;0.10;;;16.80;99.90;;;;;;4901809;29;20052;-68
2022/06/09 08:22:43;;;;;;;0.52;0.52;;;16.90;99.90;;;;;;4900336;29;20059;-69
2022/06/09 08:25:12;;;;;;;0.08;0.08;;;16.80;99.90;;;;;;4895296;29;20049;-68
2022/06/09 08:27:37;;;;;;;0.00;0.00;;;16.90;99.90;;;;;;4893880;29;20141;-68
2022/06/09 08:30:05;;;;;;;0.05;0.05;;;17.00;99.90;;;;;;4893810;29;20636;-68
2022/06/09 08:32:31;;;;;;;0.10;0.10;;;17.00;99.90;;;;;;4911832;29;20056;-68
2022/06/09 08:34:57;;;;;;;0.03;0.03;;;17.00;99.90;;;;;;4912758;29;20048;-68
2022/06/09 08:37:23;;;;;;;0.10;0.10;;;16.90;99.90;;;;;;4902594;29;20048;-68
2022/06/09 08:39:48;;;;;;;0.00;0.00;;;17.10;99.90;;;;;;4899534;29;20488;-68
2022/06/09 08:42:44;;;;;;;0.85;0.60;;;17.10;99.90;;;;;;4898599;29;20162;-68
2022/06/09 08:45:29;;;;;;;0.05;0.05;;;17.40;99.90;;;;;;4895129;29;20049;-69
2022/06/09 08:47:58;;;;;;;0.13;0.13;;;17.40;99.90;;;;;;4894722;29;20053;-69
2022/06/09 08:50:38;;;;;;;0.03;0.03;;;17.30;99.90;;;;;;4905161;29;20037;-68
2022/06/09 08:53:20;;;;;;;0.55;0.55;;;17.50;99.90;;;;;;4895912;29;20509;-69
2022/06/09 08:55:51;;;;;;;2.72;1.48;;;17.60;99.90;;;;;;4896765;29;20384;-68
2022/06/09 08:58:24;;;;;;;0.10;0.10;;;17.60;99.90;;;;;;4894740;29;20467;-68
2022/06/09 09:00:59;;;;;;;0.10;0.10;;;17.50;99.90;;;;;;4901153;29;20153;-68
2022/06/09 09:03:46;;;;;;;0.30;0.30;;;17.40;99.90;;;;;;4913513;29;20571;-69
2022/06/09 09:06:29;;;;;;;0.05;0.05;;;17.30;99.90;;;;;;4910484;29;20055;-68
2022/06/09 09:09:08;;;;;;;0.63;0.63;;;17.50;99.90;;;;;;4911716;29;20883;-69
2022/06/09 09:11:39;;;;;;;3.47;0.55;;;17.60;99.90;;;;;;4893876;29;20061;-68
2022/06/09 09:14:11;;;;;;;0.10;0.10;;;17.60;99.90;;;;;;4894526;29;20408;-69
2022/06/09 09:16:54;;;;;;;0.10;0.10;;;17.70;99.90;;;;;;4895701;29;20514;-68
2022/06/09 09:19:25;;;;;;;0.00;0.00;;;17.80;99.90;;;;;;4895147;29;20048;-68
2022/06/09 09:22:00;;;;;;;0.05;0.05;;;17.80;99.90;;;;;;4902437;29;20123;-69
2022/06/09 09:24:32;;;;;;;0.10;0.10;;;17.90;99.90;;;;;;4914614;29;20040;-69
2022/06/09 09:27:14;;;;;;;0.00;0.00;;;17.80;99.90;;;;;;4900824;29;20052;-68
2022/06/09 09:30:01;;;;;;;0.28;0.28;;;17.80;99.90;;;;;;4894429;29;20105;-68
2022/06/09 09:32:33;;;;;;;0.00;0.00;;;17.90;99.90;;;;;;4895078;29;20553;-69
2022/06/09 09:34:59;;;;;;;0.00;0.00;;;17.90;99.90;;;;;;4895384;29;20547;-69
2022/06/09 09:37:36;;;;;;;0.00;0.00;;;18.00;99.90;;;;;;4910501;29;20052;-69
2022/06/09 09:40:11;;;;;;;0.22;0.22;;;18.00;99.90;;;;;;4910457;29;20059;-69
2022/06/09 09:42:42;;;;;;;0.38;0.38;;;18.10;99.90;;;;;;4912931;29;20058;-69
2022/06/09 09:45:10;;;;;;;0.03;0.03;;;18.40;99.90;;;;;;4910848;29;20175;-69
2022/06/09 09:47:58;;;;;;;1.30;0.38;;;18.90;99.90;;;;;;4892999;29;20104;-69
2022/06/09 09:50:48;;;;;;;0.22;0.20;;;19.30;99.90;;;;;;4895513;29;20055;-69
2022/06/09 09:53:19;;;;;;;0.00;0.00;;;19.60;99.90;;;;;;4893945;29;20139;-69
2022/06/09 09:56:15;;;;;;;0.63;0.50;;;19.90;99.90;;;;;;4894555;29;20061;-69
2022/06/09 09:58:47;;;;;;;0.10;0.10;;;20.10;99.90;;;;;;4893985;29;20061;-69
2022/06/09 10:01:24;;;;;;;0.00;0.00;;;20.20;99.90;;;;;;4893141;29;20112;-69
2022/06/09 10:09:59;;;;;;;0.20;0.20;;;20.30;99.90;;;;;;4895410;29;20049;-69
2022/06/09 10:12:34;;;;;;;0.47;0.47;;;20.20;99.90;;;;;;4895321;29;20057;-70
2022/06/09 10:15:02;;;;;;;0.20;0.20;;;20.20;99.90;;;;;;4900625;29;20048;-69
2022/06/09 10:17:41;;;;;;;0.05;0.05;;;20.10;99.90;;;;;;4894051;29;20052;-69
2022/06/09 10:20:28;;;;;;;0.32;0.32;;;19.90;99.90;;;;;;4891981;29;20496;-70
2022/06/09 10:23:01;;;;;;;0.20;0.20;;;19.90;99.90;;;;;;4893551;29;20060;-69
2022/06/09 10:25:30;;;;;;;;;;;19.80;99.90;;;;;;4914070;29;20083;-69
2022/06/09 10:28:03;;;;;;;0.10;0.10;;;19.70;99.90;;;;;;4910298;29;19974;-69
2022/06/09 10:30:54;;;;;;;2.50;1.60;;;19.80;99.90;;;;;;4912617;29;20052;-69
2022/06/09 10:33:39;;;;;;;0.00;0.00;;;19.90;99.90;;;;;;4901908;29;20092;-68
2022/06/09 10:36:28;;;;;;;0.00;0.00;;;19.90;99.90;;;;;;4892833;29;20551;-69
2022/06/09 10:38:56;;;;;;;0.00;0.00;;;20.00;99.90;;;;;;4904594;29;20103;-69
2022/06/09 10:41:35;;;;;;;0.10;0.10;;;20.00;99.90;;;;;;4896708;29;20052;-69
2022/06/09 10:44:18;;;;;;;0.15;0.15;;;20.10;99.90;;;;;;4894374;29;20085;-69
2022/06/09 10:55:58;;;;;;;0.10;0.10;;;20.30;99.90;;;;;;4910611;29;20481;-69
2022/06/09 10:58:37;;;;;;;0.00;0.00;;;20.10;99.90;;;;;;4910261;29;20091;-69
2022/06/09 11:01:04;;;;;;;0.20;0.20;;;19.90;99.90;;;;;;4912946;29;20056;-69
2022/06/09 11:03:36;;;;;;;0.95;0.95;;;20.00;99.90;;;;;;4909872;29;20488;-69
2022/06/09 11:06:20;;;;;;;26.98;0.73;;;20.20;99.90;;;;;;4912774;29;20044;-69
2022/06/09 11:09:26;;;;;;;2.80;1.67;;;20.30;99.90;;;;;;4911727;29;20430;-69
2022/06/09 11:12:04;;;;;;;2.92;2.28;;;20.30;99.90;;;;;;4901236;29;20052;-70
2022/06/09 11:14:57;;;;;;;5.05;1.25;;;20.50;99.90;;;;;;4912316;29;20459;-69
2022/06/09 11:17:43;;;;;;;0.00;0.00;;;20.20;99.90;;;;;;4894461;29;20124;-69
2022/06/09 11:20:24;;;;;;;0.00;0.00;;;20.30;99.90;;;;;;4893126;29;20317;-69
2022/06/09 11:23:27;;;;;;;0.10;0.10;;;20.40;99.90;;;;;;4891914;29;20489;-70
2022/06/09 11:26:09;;;;;;;3.22;1.70;;;20.10;99.90;;;;;;4892963;29;20504;-70
2022/06/09 11:28:49;;;;;;;0.00;0.00;;;20.20;99.90;;;;;;4905725;29;20123;-70
2022/06/09 11:32:00;;;;;;;0.20;0.20;;;20.60;99.90;;;;;;4911609;29;20547;-70
2022/06/09 11:35:13;;;;;;;0.10;0.10;;;20.80;99.90;;;;;;4913705;29;20056;-70
2022/06/09 11:37:57;;;;;;;0.53;0.40;;;21.00;99.90;;;;;;4897600;29;20044;-70
2022/06/09 11:40:41;;;;;;;;;;;21.30;99.90;;;;;;4910942;29;20060;-70
2022/06/09 11:43:19;;;;;;;1.38;1.27;;;21.40;99.90;;;;;;4916762;29;19938;-70
2022/06/09 11:45:50;;;;;;;0.10;0.10;;;21.30;99.90;;;;;;4914706;29;20048;-70
2022/06/09 11:48:25;;;;;;;1.80;0.80;;;20.90;99.90;;;;;;4912384;29;20051;-69
2022/06/09 11:50:53;;;;;;;0.00;0.00;;;20.70;99.90;;;;;;4916552;29;20127;-69
2022/06/09 11:53:23;;;;;;;0.08;0.08;;;20.50;99.90;;;;;;4913485;29;20142;-69
2022/06/09 11:56:00;;;;;;;0.00;0.00;;;20.70;99.90;;;;;;4915242;29;20044;-70
2022/06/09 11:58:37;;;;;;;0.20;0.20;;;20.60;99.90;;;;;;4911797;29;20464;-70
2022/06/09 12:01:15;;;;;;;0.00;0.00;;;20.50;99.90;;;;;;4914117;29;20048;-69
2022/06/09 12:04:06;;;;;;;1.17;1.17;;;20.40;99.90;;;;;;4915350;29;20103;-70
2022/06/09 12:06:32;;;;;;;0.00;0.00;;;20.50;99.90;;;;;;4903055;29;20051;-69
2022/06/09 12:08:57;;;;;;;0.00;0.00;;;20.40;99.90;;;;;;4896828;29;20425;-69
2022/06/09 12:11:24;;;;;;;0.17;0.05;;;20.90;99.90;;;;;;4897157;29;20092;-69
2022/06/09 12:14:10;;;;;;;0.00;0.00;;;21.10;99.90;;;;;;4900047;29;20429;-69
2022/06/09 12:16:58;;;;;;;0.00;0.00;;;20.90;99.90;;;;;;4897002;29;20128;-69
2022/06/09 12:19:27;;;;;;;2.45;1.75;;;20.70;99.90;;;;;;4897212;29;20052;-70
2022/06/09 12:21:59;;;;;;;1.65;1.55;;;20.90;99.90;;;;;;4895076;29;20084;-69
2022/06/09 12:24:27;;;;;;;0.13;0.13;;;21.20;99.90;;;;;;4895942;29;20051;-69
2022/06/09 12:27:16;;;;;;;0.10;0.10;;;21.50;99.90;;;;;;4895516;29;20056;-69
2022/06/09 12:30:06;;;;;;;0.93;0.25;;;21.80;99.90;;;;;;4895962;29;20169;-70
2022/06/09 12:32:47;;;;;;;0.00;0.00;;;22.10;99.90;;;;;;4910108;29;20144;-69
2022/06/09 12:35:29;;;;;;;0.00;0.00;;;22.40;99.90;;;;;;4911168;29;20068;-69
2022/06/09 12:37:59;;;;;;;0.00;0.00;;;22.30;99.90;;;;;;4915581;29;20511;-69
2022/06/09 12:40:33;;;;;;;0.00;0.00;;;22.40;99.90;;;;;;4913590;29;20476;-70
2022/06/09 12:43:07;;;;;;;0.45;0.45;;;22.00;99.90;;;;;;4914328;29;20052;-69
2022/06/09 12:45:38;;;;;;;0.00;0.00;;;22.10;99.90;;;;;;4912887;29;20400;-69
2022/06/09 12:48:16;;;;;;;0.38;0.38;;;22.30;99.90;;;;;;4915108;29;20052;-69
2022/06/09 12:50:52;;;;;;;0.10;0.10;;;22.30;99.90;;;;;;4914584;29;20408;-69
2022/06/09 12:53:23;;;;;;;0.00;0.00;;;22.00;99.90;;;;;;4904854;29;20052;-69
2022/06/09 12:55:56;;;;;;;0.00;0.00;;;22.30;99.90;;;;;;4895438;29;20048;-69
2022/06/09 12:58:26;;;;;;;0.10;0.10;;;22.40;99.90;;;;;;4895596;29;20055;-69
2022/06/09 13:00:55;;;;;;;0.85;0.45;;;22.60;99.90;;;;;;4895614;29;20100;-69
2022/06/09 13:03:29;;;;;;;0.00;0.00;;;22.60;99.90;;;;;;4894816;29;20381;-70
2022/06/09 13:05:56;;;;;;;1.05;1.00;;;22.60;99.90;;;;;;4896684;29;20040;-70
2022/06/09 13:08:27;;;;;;;5.15;0.85;;;22.30;99.90;;;;;;4894413;29;20433;-69
2022/06/09 13:10:58;;;;;;;0.10;0.10;;;22.20;99.90;;;;;;4895847;29;20044;-70
2022/06/09 13:13:31;;;;;;;0.10;0.10;;;22.30;99.90;;;;;;4895967;29;20602;-70
2022/06/09 13:16:00;;;;;;;0.43;0.35;;;22.30;99.90;;;;;;4912803;29;20044;-70
2022/06/09 13:18:42;;;;;;;0.00;0.00;;;22.00;99.90;;;;;;4913988;29;20040;-70
2022/06/09 13:21:16;;;;;;;0.10;0.10;;;22.10;99.90;;;;;;4913459;29;20457;-70
2022/06/09 13:23:45;;;;;;;0.00;0.00;;;21.90;99.90;;;;;;4913332;29;20501;-70
2022/06/09 13:26:15;;;;;;;0.00;0.00;;;22.20;99.90;;;;;;4910529;29;20508;-70
2022/06/09 13:28:50;;;;;;;0.00;0.00;;;22.40;99.90;;;;;;4914593;29;20048;-70
2022/06/09 13:31:27;;;;;;;1.88;1.25;;;21.80;99.90;;;;;;4913011;29;20143;-71
2022/06/09 13:34:01;;;;;;;0.00;0.00;;;22.00;99.90;;;;;;4914618;29;20571;-70
2022/06/09 13:36:37;;;;;;;0.00;0.00;;;22.10;99.90;;;;;;4911178;29;20628;-70